CheckWX is a tool to help pilots better visualize weather data.  It is not intended as a substitute for an official pre-flight weather briefing.

00:37:43 UTC

KLRF TAF
Little Rock AFB Airport
Jacksonville, Arkansas, USA
TAF KLRF 242300Z 2423/2605 26010G15KT 9999 BKN060 QNH2958INS BECMG 2501/2502 27009KT 9999 BKN030 QNH2967INS BECMG 2512/2513 33006KT 9999 SCT020 BKN050 QNH2983INS BECMG 2603/2604 34006KT 9999 SCT025 BKN040 QNH3002INS TX16/2423Z TN08/2513Z

Feb-24@
23:00 UTC

Feb-24 @ 23:00 UTC

Feb-25@
01:00 UTC

Feb-25 @ 01:00 UTC

TAF KLRF 242300Z 2423/2605 26010G15KT 9999 BKN060 QNH2958INS
Wind
  • 260° at 10 KTS
  • {Gusting to 15 KTS
Cloud Levels
  • Broken at 6,000' AGL

Feb-25@
01:00 UTC

Feb-25 @ 01:00 UTC

Feb-25@
12:00 UTC

Feb-25 @ 12:00 UTC

BECMG 2501/2502 27009KT 9999 BKN030 QNH2967INS

Becoming

Becoming Conditions expected by Tue, Feb 25, 2020 @ 02:00 UTC

Wind
  • 270° at 9 KTS
Cloud Levels
  • Broken at 3,000' AGL

Feb-25@
12:00 UTC

Feb-25 @ 12:00 UTC

Feb-26@
03:00 UTC

Feb-26 @ 03:00 UTC

BECMG 2512/2513 33006KT 9999 SCT020 BKN050 QNH2983INS

Becoming

Becoming Conditions expected by Tue, Feb 25, 2020 @ 13:00 UTC

Wind
  • 330° at 6 KTS
Cloud Levels
  • Scattered at 2,000' AGL
  • Broken at 5,000' AGL

Feb-26@
03:00 UTC

Feb-26 @ 03:00 UTC

Feb-26@
05:00 UTC

Feb-26 @ 05:00 UTC

BECMG 2603/2604 34006KT 9999 SCT025 BKN040 QNH3002INS TX16/2423Z TN08/2513Z

Becoming

Becoming Conditions expected by Wed, Feb 26, 2020 @ 04:00 UTC

Wind
  • 340° at 6 KTS
Cloud Levels
  • Scattered at 2,500' AGL
  • Broken at 4,000' AGL